sensor_id;sensor_type;location;lat;lon;timestamp;P1;durP1;ratioP1;P2;durP2;ratioP2
48161;SDS011;33950;48.154;16.316;2023-02-01T00:01:30;2.28;;;1.08;;
48161;SDS011;33950;48.154;16.316;2023-02-01T00:04:16;1.65;;;1.10;;
48161;SDS011;33950;48.154;16.316;2023-02-01T00:07:03;2.53;;;1.42;;
48161;SDS011;33950;48.154;16.316;2023-02-01T00:09:49;1.52;;;1.08;;
48161;SDS011;33950;48.154;16.316;2023-02-01T00:12:36;2.22;;;1.33;;
48161;SDS011;33950;48.154;16.316;2023-02-01T00:15:22;2.30;;;1.05;;
48161;SDS011;33950;48.154;16.316;2023-02-01T00:18:09;2.78;;;1.20;;
48161;SDS011;33950;48.154;16.316;2023-02-01T00:20:55;1.88;;;0.90;;
48161;SDS011;33950;48.154;16.316;2023-02-01T00:23:41;1.55;;;1.13;;
48161;SDS011;33950;48.154;16.316;2023-02-01T00:26:30;2.35;;;1.05;;
48161;SDS011;33950;48.154;16.316;2023-02-01T00:29:19;2.15;;;1.40;;
48161;SDS011;33950;48.154;16.316;2023-02-01T00:32:05;4.10;;;1.30;;
48161;SDS011;33950;48.154;16.316;2023-02-01T00:34:51;4.38;;;1.42;;
48161;SDS011;33950;48.154;16.316;2023-02-01T00:37:37;3.85;;;1.60;;
48161;SDS011;33950;48.154;16.316;2023-02-01T00:40:23;2.90;;;1.60;;
48161;SDS011;33950;48.154;16.316;2023-02-01T00:43:09;4.15;;;1.20;;
48161;SDS011;33950;48.154;16.316;2023-02-01T00:45:57;2.97;;;1.73;;
48161;SDS011;33950;48.154;16.316;2023-02-01T00:48:43;4.78;;;1.85;;
48161;SDS011;33950;48.154;16.316;2023-02-01T00:51:30;1.35;;;1.25;;
48161;SDS011;33950;48.154;16.316;2023-02-01T00:54:16;4.70;;;2.30;;
48161;SDS011;33950;48.154;16.316;2023-02-01T00:57:02;3.45;;;2.10;;
48161;SDS011;33950;48.154;16.316;2023-02-01T00:59:48;5.03;;;1.92;;
48161;SDS011;33950;48.154;16.316;2023-02-01T01:02:36;5.05;;;2.00;;
48161;SDS011;33950;48.154;16.316;2023-02-01T01:05:22;4.55;;;1.92;;
48161;SDS011;33950;48.154;16.316;2023-02-01T01:08:09;2.90;;;1.45;;
48161;SDS011;33950;48.154;16.316;2023-02-01T01:10:55;2.63;;;1.77;;
48161;SDS011;33950;48.154;16.316;2023-02-01T01:13:41;5.20;;;1.58;;
48161;SDS011;33950;48.154;16.316;2023-02-01T01:16:28;2.72;;;1.65;;
48161;SDS011;33950;48.154;16.316;2023-02-01T01:19:17;3.00;;;1.67;;
48161;SDS011;33950;48.154;16.316;2023-02-01T01:22:03;3.47;;;1.20;;
48161;SDS011;33950;48.154;16.316;2023-02-01T01:24:49;4.15;;;1.63;;
48161;SDS011;33950;48.154;16.316;2023-02-01T01:27:35;3.78;;;1.50;;
48161;SDS011;33950;48.154;16.316;2023-02-01T01:30:21;1.58;;;1.17;;
48161;SDS011;33950;48.154;16.316;2023-02-01T01:33:08;1.38;;;1.00;;
48161;SDS011;33950;48.154;16.316;2023-02-01T01:35:55;3.90;;;1.25;;
48161;SDS011;33950;48.154;16.316;2023-02-01T01:38:41;2.15;;;1.70;;
48161;SDS011;33950;48.154;16.316;2023-02-01T01:41:29;1.88;;;1.30;;
48161;SDS011;33950;48.154;16.316;2023-02-01T01:47:40;4.93;;;2.05;;
48161;SDS011;33950;48.154;16.316;2023-02-01T01:50:33;4.72;;;2.22;;
48161;SDS011;33950;48.154;16.316;2023-02-01T01:53:25;3.78;;;2.00;;
48161;SDS011;33950;48.154;16.316;2023-02-01T01:56:13;7.05;;;1.95;;
48161;SDS011;33950;48.154;16.316;2023-02-01T01:59:00;3.42;;;1.75;;
48161;SDS011;33950;48.154;16.316;2023-02-01T02:01:47;4.15;;;2.08;;
48161;SDS011;33950;48.154;16.316;2023-02-01T02:04:33;8.30;;;1.85;;
48161;SDS011;33950;48.154;16.316;2023-02-01T02:07:21;3.05;;;1.80;;
48161;SDS011;33950;48.154;16.316;2023-02-01T02:10:12;2.45;;;1.45;;
48161;SDS011;33950;48.154;16.316;2023-02-01T02:12:59;1.92;;;1.30;;
48161;SDS011;33950;48.154;16.316;2023-02-01T02:15:48;4.47;;;1.27;;
48161;SDS011;33950;48.154;16.316;2023-02-01T02:18:44;1.23;;;1.13;;
48161;SDS011;33950;48.154;16.316;2023-02-01T02:21:41;2.45;;;1.13;;
48161;SDS011;33950;48.154;16.316;2023-02-01T02:24:50;3.92;;;0.88;;
48161;SDS011;33950;48.154;16.316;2023-02-01T02:27:52;6.80;;;1.65;;
48161;SDS011;33950;48.154;16.316;2023-02-01T02:34:18;3.40;;;1.80;;
48161;SDS011;33950;48.154;16.316;2023-02-01T02:37:12;2.08;;;1.60;;
48161;SDS011;33950;48.154;16.316;2023-02-01T02:40:05;2.25;;;1.27;;
48161;SDS011;33950;48.154;16.316;2023-02-01T02:43:01;3.78;;;1.95;;
48161;SDS011;33950;48.154;16.316;2023-02-01T02:46:15;6.68;;;2.00;;
48161;SDS011;33950;48.154;16.316;2023-02-01T02:49:29;3.15;;;1.50;;
48161;SDS011;33950;48.154;16.316;2023-02-01T02:52:24;1.98;;;1.15;;
48161;SDS011;33950;48.154;16.316;2023-02-01T02:55:29;2.80;;;1.40;;
48161;SDS011;33950;48.154;16.316;2023-02-01T02:58:18;2.50;;;1.42;;
48161;SDS011;33950;48.154;16.316;2023-02-01T03:01:25;2.95;;;1.48;;
48161;SDS011;33950;48.154;16.316;2023-02-01T03:04:31;6.80;;;2.25;;
48161;SDS011;33950;48.154;16.316;2023-02-01T03:10:42;2.42;;;1.40;;
48161;SDS011;33950;48.154;16.316;2023-02-01T03:16:22;4.15;;;1.77;;
48161;SDS011;33950;48.154;16.316;2023-02-01T03:19:13;6.25;;;1.85;;
48161;SDS011;33950;48.154;16.316;2023-02-01T03:22:05;2.83;;;1.57;;
48161;SDS011;33950;48.154;16.316;2023-02-01T03:24:55;1.83;;;1.10;;
48161;SDS011;33950;48.154;16.316;2023-02-01T03:27:47;3.20;;;2.03;;
48161;SDS011;33950;48.154;16.316;2023-02-01T03:30:38;4.93;;;2.00;;
48161;SDS011;33950;48.154;16.316;2023-02-01T03:33:27;2.92;;;2.10;;
48161;SDS011;33950;48.154;16.316;2023-02-01T03:36:17;3.15;;;1.90;;
48161;SDS011;33950;48.154;16.316;2023-02-01T03:39:13;6.32;;;2.85;;
48161;SDS011;33950;48.154;16.316;2023-02-01T03:42:02;3.47;;;1.88;;
48161;SDS011;33950;48.154;16.316;2023-02-01T03:44:53;4.05;;;1.92;;
48161;SDS011;33950;48.154;16.316;2023-02-01T03:50:32;6.85;;;2.45;;
48161;SDS011;33950;48.154;16.316;2023-02-01T03:53:22;5.97;;;2.20;;
48161;SDS011;33950;48.154;16.316;2023-02-01T03:56:11;5.75;;;2.58;;
48161;SDS011;33950;48.154;16.316;2023-02-01T03:58:58;5.82;;;2.35;;
48161;SDS011;33950;48.154;16.316;2023-02-01T04:01:44;5.72;;;3.35;;
48161;SDS011;33950;48.154;16.316;2023-02-01T04:04:31;3.70;;;2.38;;
48161;SDS011;33950;48.154;16.316;2023-02-01T04:07:17;3.67;;;2.30;;
48161;SDS011;33950;48.154;16.316;2023-02-01T04:10:04;5.65;;;2.55;;
48161;SDS011;33950;48.154;16.316;2023-02-01T04:12:52;3.28;;;2.30;;
48161;SDS011;33950;48.154;16.316;2023-02-01T04:15:38;6.53;;;2.97;;
48161;SDS011;33950;48.154;16.316;2023-02-01T04:18:25;5.50;;;3.28;;
48161;SDS011;33950;48.154;16.316;2023-02-01T04:21:11;3.83;;;2.60;;
48161;SDS011;33950;48.154;16.316;2023-02-01T04:23:57;7.28;;;2.80;;
48161;SDS011;33950;48.154;16.316;2023-02-01T04:26:43;10.13;;;3.72;;
48161;SDS011;33950;48.154;16.316;2023-02-01T04:29:30;4.78;;;2.88;;
48161;SDS011;33950;48.154;16.316;2023-02-01T04:32:16;5.45;;;2.70;;
48161;SDS011;33950;48.154;16.316;2023-02-01T04:35:03;4.80;;;3.15;;
48161;SDS011;33950;48.154;16.316;2023-02-01T04:37:50;6.15;;;3.38;;
48161;SDS011;33950;48.154;16.316;2023-02-01T04:40:36;6.78;;;3.13;;
48161;SDS011;33950;48.154;16.316;2023-02-01T04:43:23;8.35;;;2.95;;
48161;SDS011;33950;48.154;16.316;2023-02-01T04:46:10;8.55;;;3.50;;
48161;SDS011;33950;48.154;16.316;2023-02-01T04:48:56;4.53;;;2.85;;
48161;SDS011;33950;48.154;16.316;2023-02-01T04:51:42;6.35;;;3.03;;
48161;SDS011;33950;48.154;16.316;2023-02-01T04:54:29;4.10;;;2.67;;
48161;SDS011;33950;48.154;16.316;2023-02-01T04:57:15;5.50;;;2.85;;
48161;SDS011;33950;48.154;16.316;2023-02-01T05:00:01;5.65;;;2.15;;
48161;SDS011;33950;48.154;16.316;2023-02-01T05:02:48;5.40;;;2.88;;
48161;SDS011;33950;48.154;16.316;2023-02-01T05:05:34;5.40;;;2.85;;
48161;SDS011;33950;48.154;16.316;2023-02-01T05:08:21;3.65;;;2.38;;
48161;SDS011;33950;48.154;16.316;2023-02-01T05:11:07;4.88;;;2.78;;
48161;SDS011;33950;48.154;16.316;2023-02-01T05:14:13;4.32;;;2.50;;
48161;SDS011;33950;48.154;16.316;2023-02-01T05:17:00;5.88;;;2.70;;
48161;SDS011;33950;48.154;16.316;2023-02-01T05:19:47;4.63;;;2.60;;
48161;SDS011;33950;48.154;16.316;2023-02-01T05:22:33;6.57;;;2.83;;
48161;SDS011;33950;48.154;16.316;2023-02-01T05:25:19;5.28;;;2.67;;
48161;SDS011;33950;48.154;16.316;2023-02-01T05:28:05;5.72;;;3.10;;
48161;SDS011;33950;48.154;16.316;2023-02-01T05:30:51;6.88;;;2.90;;
48161;SDS011;33950;48.154;16.316;2023-02-01T05:33:37;6.85;;;3.03;;
48161;SDS011;33950;48.154;16.316;2023-02-01T05:36:25;8.63;;;3.28;;
48161;SDS011;33950;48.154;16.316;2023-02-01T05:39:11;6.40;;;3.35;;
48161;SDS011;33950;48.154;16.316;2023-02-01T05:41:57;6.05;;;3.15;;
48161;SDS011;33950;48.154;16.316;2023-02-01T05:44:43;4.85;;;2.65;;
48161;SDS011;33950;48.154;16.316;2023-02-01T05:47:30;5.82;;;3.05;;
48161;SDS011;33950;48.154;16.316;2023-02-01T05:50:16;5.63;;;2.88;;
48161;SDS011;33950;48.154;16.316;2023-02-01T05:53:03;4.32;;;2.67;;
48161;SDS011;33950;48.154;16.316;2023-02-01T05:55:49;6.00;;;2.85;;
48161;SDS011;33950;48.154;16.316;2023-02-01T05:58:35;9.52;;;3.10;;
48161;SDS011;33950;48.154;16.316;2023-02-01T06:02:43;4.53;;;2.33;;
48161;SDS011;33950;48.154;16.316;2023-02-01T06:05:29;10.30;;;3.30;;
48161;SDS011;33950;48.154;16.316;2023-02-01T06:08:15;6.45;;;2.67;;
48161;SDS011;33950;48.154;16.316;2023-02-01T06:11:03;7.00;;;3.20;;
48161;SDS011;33950;48.154;16.316;2023-02-01T06:13:50;7.70;;;3.50;;
48161;SDS011;33950;48.154;16.316;2023-02-01T06:16:36;10.80;;;3.35;;
48161;SDS011;33950;48.154;16.316;2023-02-01T06:19:24;6.57;;;3.22;;
48161;SDS011;33950;48.154;16.316;2023-02-01T06:22:10;5.78;;;3.05;;
48161;SDS011;33950;48.154;16.316;2023-02-01T06:24:56;8.00;;;3.67;;
48161;SDS011;33950;48.154;16.316;2023-02-01T06:27:44;4.53;;;2.75;;
48161;SDS011;33950;48.154;16.316;2023-02-01T06:30:30;3.40;;;2.22;;
48161;SDS011;33950;48.154;16.316;2023-02-01T06:33:16;7.60;;;3.58;;
48161;SDS011;33950;48.154;16.316;2023-02-01T06:36:05;4.50;;;2.60;;
48161;SDS011;33950;48.154;16.316;2023-02-01T06:38:52;5.40;;;2.70;;
48161;SDS011;33950;48.154;16.316;2023-02-01T06:41:39;5.95;;;3.08;;
48161;SDS011;33950;48.154;16.316;2023-02-01T06:44:25;4.30;;;2.80;;
48161;SDS011;33950;48.154;16.316;2023-02-01T06:47:11;4.18;;;2.35;;
48161;SDS011;33950;48.154;16.316;2023-02-01T06:49:57;3.88;;;2.47;;
48161;SDS011;33950;48.154;16.316;2023-02-01T06:52:44;6.93;;;2.80;;
48161;SDS011;33950;48.154;16.316;2023-02-01T06:55:30;5.72;;;2.50;;
48161;SDS011;33950;48.154;16.316;2023-02-01T06:58:16;3.30;;;2.53;;
48161;SDS011;33950;48.154;16.316;2023-02-01T07:01:04;5.15;;;2.30;;
48161;SDS011;33950;48.154;16.316;2023-02-01T07:03:51;5.28;;;2.35;;
48161;SDS011;33950;48.154;16.316;2023-02-01T07:06:37;8.52;;;2.50;;
48161;SDS011;33950;48.154;16.316;2023-02-01T07:09:24;4.95;;;2.72;;
48161;SDS011;33950;48.154;16.316;2023-02-01T07:12:11;5.35;;;2.63;;
48161;SDS011;33950;48.154;16.316;2023-02-01T07:14:57;3.55;;;2.00;;
48161;SDS011;33950;48.154;16.316;2023-02-01T07:17:43;5.22;;;2.60;;
48161;SDS011;33950;48.154;16.316;2023-02-01T07:20:30;3.50;;;2.38;;
48161;SDS011;33950;48.154;16.316;2023-02-01T07:23:16;5.95;;;2.17;;
48161;SDS011;33950;48.154;16.316;2023-02-01T07:26:04;3.10;;;1.90;;
48161;SDS011;33950;48.154;16.316;2023-02-01T07:28:51;4.15;;;2.03;;
48161;SDS011;33950;48.154;16.316;2023-02-01T07:31:37;5.45;;;2.55;;
48161;SDS011;33950;48.154;16.316;2023-02-01T07:34:23;4.05;;;2.60;;
48161;SDS011;33950;48.154;16.316;2023-02-01T07:37:10;3.80;;;2.30;;
48161;SDS011;33950;48.154;16.316;2023-02-01T07:39:56;7.18;;;2.75;;
48161;SDS011;33950;48.154;16.316;2023-02-01T07:42:44;4.78;;;2.50;;
48161;SDS011;33950;48.154;16.316;2023-02-01T07:45:30;4.65;;;2.50;;
48161;SDS011;33950;48.154;16.316;2023-02-01T07:48:16;4.30;;;2.22;;
48161;SDS011;33950;48.154;16.316;2023-02-01T07:51:02;3.58;;;2.38;;
48161;SDS011;33950;48.154;16.316;2023-02-01T07:53:49;5.38;;;2.92;;
48161;SDS011;33950;48.154;16.316;2023-02-01T07:56:36;7.25;;;2.83;;
48161;SDS011;33950;48.154;16.316;2023-02-01T07:59:23;7.22;;;3.20;;
48161;SDS011;33950;48.154;16.316;2023-02-01T08:02:09;4.20;;;2.42;;
48161;SDS011;33950;48.154;16.316;2023-02-01T08:04:55;5.72;;;2.53;;
48161;SDS011;33950;48.154;16.316;2023-02-01T08:07:41;7.43;;;3.25;;
48161;SDS011;33950;48.154;16.316;2023-02-01T08:10:27;7.15;;;3.17;;
48161;SDS011;33950;48.154;16.316;2023-02-01T08:13:13;3.53;;;2.20;;
48161;SDS011;33950;48.154;16.316;2023-02-01T08:16:01;5.07;;;2.70;;
48161;SDS011;33950;48.154;16.316;2023-02-01T08:18:48;8.85;;;3.15;;
48161;SDS011;33950;48.154;16.316;2023-02-01T08:21:35;4.97;;;2.63;;
48161;SDS011;33950;48.154;16.316;2023-02-01T08:24:24;7.05;;;2.50;;
48161;SDS011;33950;48.154;16.316;2023-02-01T08:27:10;4.95;;;2.63;;
48161;SDS011;33950;48.154;16.316;2023-02-01T08:29:57;5.53;;;3.20;;
48161;SDS011;33950;48.154;16.316;2023-02-01T08:32:45;4.65;;;2.70;;
48161;SDS011;33950;48.154;16.316;2023-02-01T08:35:31;3.72;;;2.33;;
48161;SDS011;33950;48.154;16.316;2023-02-01T08:38:18;7.05;;;2.58;;
48161;SDS011;33950;48.154;16.316;2023-02-01T08:41:04;5.05;;;2.70;;
48161;SDS011;33950;48.154;16.316;2023-02-01T08:43:51;6.97;;;2.90;;
48161;SDS011;33950;48.154;16.316;2023-02-01T08:46:39;7.68;;;2.25;;
48161;SDS011;33950;48.154;16.316;2023-02-01T08:49:26;4.22;;;1.92;;
48161;SDS011;33950;48.154;16.316;2023-02-01T08:52:12;6.97;;;2.97;;
48161;SDS011;33950;48.154;16.316;2023-02-01T08:54:59;4.88;;;2.45;;
48161;SDS011;33950;48.154;16.316;2023-02-01T08:57:45;4.47;;;2.00;;
48161;SDS011;33950;48.154;16.316;2023-02-01T09:00:31;4.78;;;2.50;;
48161;SDS011;33950;48.154;16.316;2023-02-01T09:03:17;6.07;;;2.60;;
48161;SDS011;33950;48.154;16.316;2023-02-01T09:06:06;5.28;;;2.50;;
48161;SDS011;33950;48.154;16.316;2023-02-01T09:08:53;10.27;;;2.70;;
48161;SDS011;33950;48.154;16.316;2023-02-01T09:11:39;5.60;;;2.70;;
48161;SDS011;33950;48.154;16.316;2023-02-01T09:14:25;4.82;;;2.70;;
48161;SDS011;33950;48.154;16.316;2023-02-01T09:17:11;4.40;;;2.35;;
48161;SDS011;33950;48.154;16.316;2023-02-01T09:19:58;5.03;;;3.03;;
48161;SDS011;33950;48.154;16.316;2023-02-01T09:22:46;4.25;;;2.50;;
48161;SDS011;33950;48.154;16.316;2023-02-01T09:25:32;5.20;;;3.17;;
48161;SDS011;33950;48.154;16.316;2023-02-01T09:28:18;4.35;;;2.58;;
48161;SDS011;33950;48.154;16.316;2023-02-01T09:31:05;5.85;;;2.75;;
48161;SDS011;33950;48.154;16.316;2023-02-01T09:33:51;9.75;;;2.83;;
48161;SDS011;33950;48.154;16.316;2023-02-01T09:36:37;6.40;;;2.90;;
48161;SDS011;33950;48.154;16.316;2023-02-01T09:39:24;5.43;;;2.20;;
48161;SDS011;33950;48.154;16.316;2023-02-01T09:42:15;4.05;;;2.28;;
48161;SDS011;33950;48.154;16.316;2023-02-01T09:45:10;4.32;;;2.25;;
48161;SDS011;33950;48.154;16.316;2023-02-01T09:48:03;4.18;;;2.40;;
48161;SDS011;33950;48.154;16.316;2023-02-01T09:50:58;3.45;;;2.33;;
48161;SDS011;33950;48.154;16.316;2023-02-01T09:53:46;4.32;;;2.45;;
48161;SDS011;33950;48.154;16.316;2023-02-01T09:56:44;4.07;;;1.95;;
48161;SDS011;33950;48.154;16.316;2023-02-01T09:59:34;4.32;;;2.63;;
48161;SDS011;33950;48.154;16.316;2023-02-01T10:02:26;5.22;;;2.17;;
48161;SDS011;33950;48.154;16.316;2023-02-01T10:05:16;2.97;;;1.70;;
48161;SDS011;33950;48.154;16.316;2023-02-01T10:08:08;1.92;;;1.50;;
48161;SDS011;33950;48.154;16.316;2023-02-01T10:11:06;3.45;;;1.63;;
48161;SDS011;33950;48.154;16.316;2023-02-01T10:14:07;3.58;;;1.95;;
48161;SDS011;33950;48.154;16.316;2023-02-01T10:17:04;4.88;;;2.03;;
48161;SDS011;33950;48.154;16.316;2023-02-01T10:20:04;3.03;;;1.90;;
48161;SDS011;33950;48.154;16.316;2023-02-01T10:23:00;3.50;;;1.02;;
48161;SDS011;33950;48.154;16.316;2023-02-01T10:25:54;4.88;;;1.35;;
48161;SDS011;33950;48.154;16.316;2023-02-01T10:28:41;3.42;;;1.70;;
48161;SDS011;33950;48.154;16.316;2023-02-01T10:31:31;2.33;;;1.52;;
48161;SDS011;33950;48.154;16.316;2023-02-01T10:34:21;2.55;;;1.30;;
48161;SDS011;33950;48.154;16.316;2023-02-01T10:37:14;2.50;;;1.67;;
48161;SDS011;33950;48.154;16.316;2023-02-01T10:40:11;1.63;;;1.15;;
48161;SDS011;33950;48.154;16.316;2023-02-01T10:43:02;4.13;;;1.60;;
48161;SDS011;33950;48.154;16.316;2023-02-01T10:45:48;2.75;;;1.70;;
48161;SDS011;33950;48.154;16.316;2023-02-01T10:48:36;4.63;;;2.40;;
48161;SDS011;33950;48.154;16.316;2023-02-01T10:51:24;1.20;;;1.08;;
48161;SDS011;33950;48.154;16.316;2023-02-01T10:54:14;8.00;;;1.30;;
48161;SDS011;33950;48.154;16.316;2023-02-01T10:57:06;2.50;;;1.75;;
48161;SDS011;33950;48.154;16.316;2023-02-01T10:59:54;4.43;;;2.55;;
48161;SDS011;33950;48.154;16.316;2023-02-01T11:02:40;2.85;;;1.95;;
48161;SDS011;33950;48.154;16.316;2023-02-01T11:05:27;2.58;;;1.50;;
48161;SDS011;33950;48.154;16.316;2023-02-01T11:08:30;3.97;;;2.40;;
48161;SDS011;33950;48.154;16.316;2023-02-01T11:11:16;5.60;;;2.33;;
48161;SDS011;33950;48.154;16.316;2023-02-01T11:14:12;4.30;;;2.05;;
48161;SDS011;33950;48.154;16.316;2023-02-01T11:17:01;5.07;;;2.35;;
48161;SDS011;33950;48.154;16.316;2023-02-01T11:20:05;4.32;;;1.92;;
48161;SDS011;33950;48.154;16.316;2023-02-01T11:22:59;4.35;;;2.03;;
48161;SDS011;33950;48.154;16.316;2023-02-01T11:25:48;4.40;;;2.80;;
48161;SDS011;33950;48.154;16.316;2023-02-01T11:28:37;11.57;;;3.00;;
48161;SDS011;33950;48.154;16.316;2023-02-01T11:31:26;4.20;;;2.35;;
48161;SDS011;33950;48.154;16.316;2023-02-01T11:34:13;6.65;;;2.65;;
48161;SDS011;33950;48.154;16.316;2023-02-01T11:37:01;5.47;;;2.75;;
48161;SDS011;33950;48.154;16.316;2023-02-01T11:39:54;7.07;;;2.38;;
48161;SDS011;33950;48.154;16.316;2023-02-01T11:42:52;3.25;;;2.40;;
48161;SDS011;33950;48.154;16.316;2023-02-01T11:45:40;4.50;;;2.13;;
48161;SDS011;33950;48.154;16.316;2023-02-01T11:48:26;3.30;;;1.98;;
48161;SDS011;33950;48.154;16.316;2023-02-01T11:51:19;5.88;;;3.30;;
48161;SDS011;33950;48.154;16.316;2023-02-01T11:54:23;4.68;;;2.40;;
48161;SDS011;33950;48.154;16.316;2023-02-01T11:57:36;4.28;;;2.42;;
48161;SDS011;33950;48.154;16.316;2023-02-01T12:00:39;4.85;;;2.15;;
48161;SDS011;33950;48.154;16.316;2023-02-01T12:07:13;5.80;;;2.03;;
48161;SDS011;33950;48.154;16.316;2023-02-01T12:10:06;2.33;;;1.63;;
48161;SDS011;33950;48.154;16.316;2023-02-01T12:13:09;7.40;;;3.65;;
48161;SDS011;33950;48.154;16.316;2023-02-01T12:16:07;3.28;;;1.90;;
48161;SDS011;33950;48.154;16.316;2023-02-01T12:19:09;4.00;;;2.17;;
48161;SDS011;33950;48.154;16.316;2023-02-01T12:22:28;5.88;;;2.42;;
48161;SDS011;33950;48.154;16.316;2023-02-01T12:25:28;3.15;;;1.70;;
48161;SDS011;33950;48.154;16.316;2023-02-01T12:28:37;7.32;;;2.13;;
48161;SDS011;33950;48.154;16.316;2023-02-01T12:31:43;2.45;;;1.63;;
48161;SDS011;33950;48.154;16.316;2023-02-01T12:34:54;6.32;;;2.42;;
48161;SDS011;33950;48.154;16.316;2023-02-01T12:37:51;2.53;;;1.75;;
48161;SDS011;33950;48.154;16.316;2023-02-01T12:40:53;4.95;;;1.63;;
48161;SDS011;33950;48.154;16.316;2023-02-01T12:43:52;2.25;;;1.15;;
48161;SDS011;33950;48.154;16.316;2023-02-01T12:46:43;3.00;;;1.20;;
48161;SDS011;33950;48.154;16.316;2023-02-01T12:49:35;3.85;;;1.73;;
48161;SDS011;33950;48.154;16.316;2023-02-01T12:52:30;3.45;;;1.35;;
48161;SDS011;33950;48.154;16.316;2023-02-01T12:55:23;2.45;;;1.55;;
48161;SDS011;33950;48.154;16.316;2023-02-01T12:58:13;2.40;;;1.30;;
48161;SDS011;33950;48.154;16.316;2023-02-01T13:01:05;3.60;;;1.50;;
48161;SDS011;33950;48.154;16.316;2023-02-01T13:04:03;8.43;;;1.92;;
48161;SDS011;33950;48.154;16.316;2023-02-01T13:07:00;3.63;;;1.50;;
48161;SDS011;33950;48.154;16.316;2023-02-01T13:09:52;3.00;;;1.50;;
48161;SDS011;33950;48.154;16.316;2023-02-01T13:12:43;3.03;;;1.02;;
48161;SDS011;33950;48.154;16.316;2023-02-01T13:15:36;3.20;;;1.30;;
48161;SDS011;33950;48.154;16.316;2023-02-01T13:18:31;5.72;;;1.17;;
48161;SDS011;33950;48.154;16.316;2023-02-01T13:21:21;7.68;;;1.05;;
48161;SDS011;33950;48.154;16.316;2023-02-01T13:24:15;3.70;;;1.10;;
48161;SDS011;33950;48.154;16.316;2023-02-01T13:27:16;2.65;;;1.23;;
48161;SDS011;33950;48.154;16.316;2023-02-01T13:30:04;2.80;;;0.85;;
48161;SDS011;33950;48.154;16.316;2023-02-01T13:33:07;2.35;;;1.20;;
48161;SDS011;33950;48.154;16.316;2023-02-01T13:36:15;2.42;;;1.05;;
48161;SDS011;33950;48.154;16.316;2023-02-01T13:39:25;1.83;;;0.93;;
48161;SDS011;33950;48.154;16.316;2023-02-01T13:42:28;1.95;;;1.08;;
48161;SDS011;33950;48.154;16.316;2023-02-01T13:45:17;3.50;;;1.40;;
48161;SDS011;33950;48.154;16.316;2023-02-01T13:48:06;1.20;;;0.85;;
48161;SDS011;33950;48.154;16.316;2023-02-01T13:51:02;2.55;;;1.08;;
48161;SDS011;33950;48.154;16.316;2023-02-01T13:53:50;1.38;;;0.68;;
48161;SDS011;33950;48.154;16.316;2023-02-01T13:56:41;2.55;;;0.90;;
48161;SDS011;33950;48.154;16.316;2023-02-01T14:06:02;4.10;;;1.00;;
48161;SDS011;33950;48.154;16.316;2023-02-01T14:12:46;1.13;;;0.57;;
48161;SDS011;33950;48.154;16.316;2023-02-01T14:15:33;1.65;;;0.52;;
48161;SDS011;33950;48.154;16.316;2023-02-01T14:21:46;0.70;;;0.37;;
48161;SDS011;33950;48.154;16.316;2023-02-01T14:24:34;0.10;;;0.10;;
48161;SDS011;33950;48.154;16.316;2023-02-01T14:27:22;0.88;;;0.20;;
48161;SDS011;33950;48.154;16.316;2023-02-01T14:30:14;0.40;;;0.10;;
48161;SDS011;33950;48.154;16.316;2023-02-01T14:33:10;0.35;;;0.20;;
48161;SDS011;33950;48.154;16.316;2023-02-01T14:36:05;0.20;;;0.13;;
48161;SDS011;33950;48.154;16.316;2023-02-01T14:38:53;0.20;;;0.20;;
48161;SDS011;33950;48.154;16.316;2023-02-01T14:41:39;0.60;;;0.20;;
48161;SDS011;33950;48.154;16.316;2023-02-01T14:44:32;1.50;;;0.20;;
48161;SDS011;33950;48.154;16.316;2023-02-01T14:47:32;0.28;;;0.17;;
48161;SDS011;33950;48.154;16.316;2023-02-01T14:50:24;0.40;;;0.15;;
48161;SDS011;33950;48.154;16.316;2023-02-01T14:53:23;1.95;;;0.35;;
48161;SDS011;33950;48.154;16.316;2023-02-01T14:56:17;1.00;;;0.38;;
48161;SDS011;33950;48.154;16.316;2023-02-01T14:59:07;1.30;;;0.95;;
48161;SDS011;33950;48.154;16.316;2023-02-01T15:01:58;1.92;;;0.93;;
48161;SDS011;33950;48.154;16.316;2023-02-01T15:04:47;2.05;;;0.65;;
48161;SDS011;33950;48.154;16.316;2023-02-01T15:07:40;1.95;;;0.95;;
48161;SDS011;33950;48.154;16.316;2023-02-01T15:10:26;0.63;;;0.63;;
48161;SDS011;33950;48.154;16.316;2023-02-01T15:13:19;4.13;;;1.15;;
48161;SDS011;33950;48.154;16.316;2023-02-01T15:16:10;4.53;;;1.33;;
48161;SDS011;33950;48.154;16.316;2023-02-01T15:19:09;2.22;;;1.00;;
48161;SDS011;33950;48.154;16.316;2023-02-01T15:21:58;5.72;;;1.52;;
48161;SDS011;33950;48.154;16.316;2023-02-01T15:24:51;9.48;;;1.75;;
48161;SDS011;33950;48.154;16.316;2023-02-01T15:27:37;4.60;;;1.15;;
48161;SDS011;33950;48.154;16.316;2023-02-01T15:30:24;3.83;;;1.45;;
48161;SDS011;33950;48.154;16.316;2023-02-01T15:33:15;1.80;;;1.17;;
48161;SDS011;33950;48.154;16.316;2023-02-01T15:36:09;3.47;;;1.27;;
48161;SDS011;33950;48.154;16.316;2023-02-01T15:39:16;1.80;;;1.15;;
48161;SDS011;33950;48.154;16.316;2023-02-01T15:42:09;4.28;;;1.38;;
48161;SDS011;33950;48.154;16.316;2023-02-01T15:45:00;2.10;;;1.20;;
48161;SDS011;33950;48.154;16.316;2023-02-01T15:47:47;2.38;;;0.75;;
48161;SDS011;33950;48.154;16.316;2023-02-01T15:50:35;3.40;;;1.02;;
48161;SDS011;33950;48.154;16.316;2023-02-01T15:53:25;0.90;;;0.75;;
48161;SDS011;33950;48.154;16.316;2023-02-01T15:56:17;5.35;;;1.23;;
48161;SDS011;33950;48.154;16.316;2023-02-01T15:59:12;2.17;;;0.70;;
48161;SDS011;33950;48.154;16.316;2023-02-01T16:02:01;4.57;;;1.15;;
48161;SDS011;33950;48.154;16.316;2023-02-01T16:04:47;4.63;;;0.57;;
48161;SDS011;33950;48.154;16.316;2023-02-01T16:07:36;3.92;;;0.90;;
48161;SDS011;33950;48.154;16.316;2023-02-01T16:10:23;2.90;;;1.05;;
48161;SDS011;33950;48.154;16.316;2023-02-01T16:13:13;3.67;;;1.30;;
48161;SDS011;33950;48.154;16.316;2023-02-01T16:16:00;7.53;;;1.27;;
48161;SDS011;33950;48.154;16.316;2023-02-01T16:18:46;3.08;;;1.20;;
48161;SDS011;33950;48.154;16.316;2023-02-01T16:21:33;7.00;;;1.02;;
48161;SDS011;33950;48.154;16.316;2023-02-01T16:24:19;6.20;;;1.30;;
48161;SDS011;33950;48.154;16.316;2023-02-01T16:27:07;7.38;;;1.42;;
48161;SDS011;33950;48.154;16.316;2023-02-01T16:29:55;7.68;;;1.63;;
48161;SDS011;33950;48.154;16.316;2023-02-01T16:32:42;4.88;;;1.15;;
48161;SDS011;33950;48.154;16.316;2023-02-01T16:35:28;9.63;;;1.50;;
48161;SDS011;33950;48.154;16.316;2023-02-01T16:38:20;5.32;;;1.40;;
48161;SDS011;33950;48.154;16.316;2023-02-01T16:41:09;6.45;;;1.42;;
48161;SDS011;33950;48.154;16.316;2023-02-01T16:43:58;5.18;;;1.55;;
48161;SDS011;33950;48.154;16.316;2023-02-01T16:46:46;12.35;;;1.67;;
48161;SDS011;33950;48.154;16.316;2023-02-01T16:49:33;7.70;;;2.15;;
48161;SDS011;33950;48.154;16.316;2023-02-01T16:52:21;5.53;;;1.73;;
48161;SDS011;33950;48.154;16.316;2023-02-01T16:55:10;10.48;;;1.98;;
48161;SDS011;33950;48.154;16.316;2023-02-01T16:57:58;5.63;;;2.20;;
48161;SDS011;33950;48.154;16.316;2023-02-01T17:00:45;4.22;;;2.42;;
48161;SDS011;33950;48.154;16.316;2023-02-01T17:03:33;4.30;;;2.35;;
48161;SDS011;33950;48.154;16.316;2023-02-01T17:06:22;5.82;;;2.58;;
48161;SDS011;33950;48.154;16.316;2023-02-01T17:09:10;4.00;;;2.38;;
48161;SDS011;33950;48.154;16.316;2023-02-01T17:11:56;9.45;;;2.42;;
48161;SDS011;33950;48.154;16.316;2023-02-01T17:14:42;9.93;;;2.78;;
48161;SDS011;33950;48.154;16.316;2023-02-01T17:17:30;5.50;;;2.40;;
48161;SDS011;33950;48.154;16.316;2023-02-01T17:20:24;8.30;;;3.47;;
48161;SDS011;33950;48.154;16.316;2023-02-01T17:23:12;5.72;;;2.60;;